sensor_id;sensor_type;location;lat;lon;timestamp;P1;durP1;ratioP1;P2;durP2;ratioP2
14518;SDS011;7346;50.846;4.388;2022-09-29T00:00:23;6.27;;;3.43;;
14518;SDS011;7346;50.846;4.388;2022-09-29T00:02:51;5.07;;;3.03;;
14518;SDS011;7346;50.846;4.388;2022-09-29T00:05:18;7.43;;;3.37;;
14518;SDS011;7346;50.846;4.388;2022-09-29T00:07:45;7.87;;;3.20;;
14518;SDS011;7346;50.846;4.388;2022-09-29T00:10:15;5.90;;;3.20;;
14518;SDS011;7346;50.846;4.388;2022-09-29T00:12:43;7.53;;;3.47;;
14518;SDS011;7346;50.846;4.388;2022-09-29T00:15:14;4.50;;;3.00;;
14518;SDS011;7346;50.846;4.388;2022-09-29T00:17:44;9.70;;;3.60;;
14518;SDS011;7346;50.846;4.388;2022-09-29T00:20:16;6.50;;;3.07;;
14518;SDS011;7346;50.846;4.388;2022-09-29T00:22:48;6.27;;;3.10;;
14518;SDS011;7346;50.846;4.388;2022-09-29T00:25:15;7.97;;;3.77;;
14518;SDS011;7346;50.846;4.388;2022-09-29T00:27:43;6.60;;;3.30;;
14518;SDS011;7346;50.846;4.388;2022-09-29T00:30:10;7.07;;;3.27;;
14518;SDS011;7346;50.846;4.388;2022-09-29T00:32:38;4.63;;;3.20;;
14518;SDS011;7346;50.846;4.388;2022-09-29T00:35:05;7.50;;;3.40;;
14518;SDS011;7346;50.846;4.388;2022-09-29T00:37:33;6.40;;;3.13;;
14518;SDS011;7346;50.846;4.388;2022-09-29T00:40:00;8.03;;;3.70;;
14518;SDS011;7346;50.846;4.388;2022-09-29T00:42:31;6.40;;;3.33;;
14518;SDS011;7346;50.846;4.388;2022-09-29T00:45:05;11.63;;;4.00;;
14518;SDS011;7346;50.846;4.388;2022-09-29T00:47:43;8.30;;;3.57;;
14518;SDS011;7346;50.846;4.388;2022-09-29T00:50:14;7.37;;;3.60;;
14518;SDS011;7346;50.846;4.388;2022-09-29T00:52:45;7.70;;;3.60;;
14518;SDS011;7346;50.846;4.388;2022-09-29T00:55:20;9.40;;;4.20;;
14518;SDS011;7346;50.846;4.388;2022-09-29T00:57:52;6.40;;;3.20;;
14518;SDS011;7346;50.846;4.388;2022-09-29T01:00:30;4.70;;;3.60;;
14518;SDS011;7346;50.846;4.388;2022-09-29T01:02:59;8.87;;;3.63;;
14518;SDS011;7346;50.846;4.388;2022-09-29T01:05:30;6.63;;;3.70;;
14518;SDS011;7346;50.846;4.388;2022-09-29T01:08:00;6.93;;;3.73;;
14518;SDS011;7346;50.846;4.388;2022-09-29T01:10:34;10.57;;;4.30;;
14518;SDS011;7346;50.846;4.388;2022-09-29T01:13:02;5.63;;;4.10;;
14518;SDS011;7346;50.846;4.388;2022-09-29T01:15:31;8.37;;;4.40;;
14518;SDS011;7346;50.846;4.388;2022-09-29T01:17:58;6.67;;;3.80;;
14518;SDS011;7346;50.846;4.388;2022-09-29T01:20:25;10.83;;;3.70;;
14518;SDS011;7346;50.846;4.388;2022-09-29T01:23:19;8.90;;;4.00;;
14518;SDS011;7346;50.846;4.388;2022-09-29T01:26:28;6.80;;;4.20;;
14518;SDS011;7346;50.846;4.388;2022-09-29T01:32:31;6.87;;;4.20;;
14518;SDS011;7346;50.846;4.388;2022-09-29T01:35:08;8.40;;;4.60;;
14518;SDS011;7346;50.846;4.388;2022-09-29T01:37:43;8.30;;;3.93;;
14518;SDS011;7346;50.846;4.388;2022-09-29T01:40:25;7.63;;;3.77;;
14518;SDS011;7346;50.846;4.388;2022-09-29T01:42:59;8.30;;;4.23;;
14518;SDS011;7346;50.846;4.388;2022-09-29T01:45:31;5.20;;;3.70;;
14518;SDS011;7346;50.846;4.388;2022-09-29T01:48:02;9.47;;;4.10;;
14518;SDS011;7346;50.846;4.388;2022-09-29T01:50:33;11.70;;;4.07;;
14518;SDS011;7346;50.846;4.388;2022-09-29T01:53:10;10.00;;;4.17;;
14518;SDS011;7346;50.846;4.388;2022-09-29T01:55:43;5.83;;;4.00;;
14518;SDS011;7346;50.846;4.388;2022-09-29T01:58:13;5.90;;;3.70;;
14518;SDS011;7346;50.846;4.388;2022-09-29T02:00:47;9.87;;;4.10;;
14518;SDS011;7346;50.846;4.388;2022-09-29T02:03:22;9.03;;;4.20;;
14518;SDS011;7346;50.846;4.388;2022-09-29T02:05:53;8.57;;;4.50;;
14518;SDS011;7346;50.846;4.388;2022-09-29T02:08:23;8.47;;;4.20;;
14518;SDS011;7346;50.846;4.388;2022-09-29T02:10:57;8.43;;;4.10;;
14518;SDS011;7346;50.846;4.388;2022-09-29T02:13:28;9.77;;;4.50;;
14518;SDS011;7346;50.846;4.388;2022-09-29T02:15:58;10.33;;;3.97;;
14518;SDS011;7346;50.846;4.388;2022-09-29T02:18:28;6.30;;;4.30;;
14518;SDS011;7346;50.846;4.388;2022-09-29T02:21:05;10.03;;;4.80;;
14518;SDS011;7346;50.846;4.388;2022-09-29T02:23:34;10.70;;;4.77;;
14518;SDS011;7346;50.846;4.388;2022-09-29T02:26:01;7.57;;;4.70;;
14518;SDS011;7346;50.846;4.388;2022-09-29T02:28:28;7.80;;;3.90;;
14518;SDS011;7346;50.846;4.388;2022-09-29T02:30:55;9.23;;;4.53;;
14518;SDS011;7346;50.846;4.388;2022-09-29T02:33:23;8.23;;;4.60;;
14518;SDS011;7346;50.846;4.388;2022-09-29T02:35:55;6.50;;;4.33;;
14518;SDS011;7346;50.846;4.388;2022-09-29T02:38:34;8.43;;;4.77;;
14518;SDS011;7346;50.846;4.388;2022-09-29T02:41:11;7.03;;;4.33;;
14518;SDS011;7346;50.846;4.388;2022-09-29T02:44:01;8.47;;;4.23;;
14518;SDS011;7346;50.846;4.388;2022-09-29T02:46:40;8.00;;;4.40;;
14518;SDS011;7346;50.846;4.388;2022-09-29T02:49:15;8.57;;;4.60;;
14518;SDS011;7346;50.846;4.388;2022-09-29T02:52:00;9.47;;;4.60;;
14518;SDS011;7346;50.846;4.388;2022-09-29T02:54:41;8.77;;;4.27;;
14518;SDS011;7346;50.846;4.388;2022-09-29T02:57:18;6.00;;;3.90;;
14518;SDS011;7346;50.846;4.388;2022-09-29T02:59:54;8.00;;;4.53;;
14518;SDS011;7346;50.846;4.388;2022-09-29T03:02:29;8.23;;;4.83;;
14518;SDS011;7346;50.846;4.388;2022-09-29T03:04:56;8.07;;;4.43;;
14518;SDS011;7346;50.846;4.388;2022-09-29T03:07:25;8.23;;;4.67;;
14518;SDS011;7346;50.846;4.388;2022-09-29T03:09:52;7.33;;;4.20;;
14518;SDS011;7346;50.846;4.388;2022-09-29T03:12:19;9.13;;;4.70;;
14518;SDS011;7346;50.846;4.388;2022-09-29T03:14:45;8.67;;;4.53;;
14518;SDS011;7346;50.846;4.388;2022-09-29T03:17:12;7.67;;;4.80;;
14518;SDS011;7346;50.846;4.388;2022-09-29T03:19:39;11.80;;;4.70;;
14518;SDS011;7346;50.846;4.388;2022-09-29T03:22:07;7.40;;;4.70;;
14518;SDS011;7346;50.846;4.388;2022-09-29T03:24:35;7.93;;;4.60;;
14518;SDS011;7346;50.846;4.388;2022-09-29T03:27:04;7.20;;;3.90;;
14518;SDS011;7346;50.846;4.388;2022-09-29T03:29:31;10.70;;;4.90;;
14518;SDS011;7346;50.846;4.388;2022-09-29T03:31:58;11.10;;;4.67;;
14518;SDS011;7346;50.846;4.388;2022-09-29T03:34:43;7.43;;;4.23;;
14518;SDS011;7346;50.846;4.388;2022-09-29T03:37:11;9.77;;;4.13;;
14518;SDS011;7346;50.846;4.388;2022-09-29T03:39:39;10.07;;;5.00;;
14518;SDS011;7346;50.846;4.388;2022-09-29T03:42:09;8.70;;;4.53;;
14518;SDS011;7346;50.846;4.388;2022-09-29T03:44:36;7.00;;;4.40;;
14518;SDS011;7346;50.846;4.388;2022-09-29T03:47:03;7.27;;;4.50;;
14518;SDS011;7346;50.846;4.388;2022-09-29T03:49:30;8.50;;;4.23;;
14518;SDS011;7346;50.846;4.388;2022-09-29T03:51:56;8.10;;;4.30;;
14518;SDS011;7346;50.846;4.388;2022-09-29T03:54:23;7.40;;;4.33;;
14518;SDS011;7346;50.846;4.388;2022-09-29T03:56:53;7.60;;;4.63;;
14518;SDS011;7346;50.846;4.388;2022-09-29T03:59:20;8.57;;;4.37;;
14518;SDS011;7346;50.846;4.388;2022-09-29T04:01:47;9.60;;;4.33;;
14518;SDS011;7346;50.846;4.388;2022-09-29T04:04:13;6.63;;;4.00;;
14518;SDS011;7346;50.846;4.388;2022-09-29T04:06:40;6.43;;;4.37;;
14518;SDS011;7346;50.846;4.388;2022-09-29T04:09:07;7.63;;;4.80;;
14518;SDS011;7346;50.846;4.388;2022-09-29T04:11:34;9.03;;;4.43;;
14518;SDS011;7346;50.846;4.388;2022-09-29T04:14:03;7.73;;;4.57;;
14518;SDS011;7346;50.846;4.388;2022-09-29T04:16:30;8.17;;;4.20;;
14518;SDS011;7346;50.846;4.388;2022-09-29T04:18:57;10.30;;;4.37;;
14518;SDS011;7346;50.846;4.388;2022-09-29T04:21:23;5.80;;;4.33;;
14518;SDS011;7346;50.846;4.388;2022-09-29T04:23:50;6.63;;;4.37;;
14518;SDS011;7346;50.846;4.388;2022-09-29T04:26:17;8.47;;;4.50;;
14518;SDS011;7346;50.846;4.388;2022-09-29T04:28:44;7.73;;;4.47;;
14518;SDS011;7346;50.846;4.388;2022-09-29T04:31:13;8.47;;;4.87;;
14518;SDS011;7346;50.846;4.388;2022-09-29T04:33:40;5.67;;;3.83;;
14518;SDS011;7346;50.846;4.388;2022-09-29T04:36:07;9.30;;;4.63;;
14518;SDS011;7346;50.846;4.388;2022-09-29T04:38:34;8.00;;;4.30;;
14518;SDS011;7346;50.846;4.388;2022-09-29T04:41:01;10.13;;;5.03;;
14518;SDS011;7346;50.846;4.388;2022-09-29T04:43:28;8.33;;;4.67;;
14518;SDS011;7346;50.846;4.388;2022-09-29T04:46:00;7.53;;;4.70;;
14518;SDS011;7346;50.846;4.388;2022-09-29T04:48:29;7.47;;;4.60;;
14518;SDS011;7346;50.846;4.388;2022-09-29T04:50:59;7.97;;;4.50;;
14518;SDS011;7346;50.846;4.388;2022-09-29T04:53:26;10.23;;;4.47;;
14518;SDS011;7346;50.846;4.388;2022-09-29T04:55:53;13.30;;;7.07;;
14518;SDS011;7346;50.846;4.388;2022-09-29T04:58:20;9.73;;;4.50;;
14518;SDS011;7346;50.846;4.388;2022-09-29T05:00:47;9.50;;;4.10;;
14518;SDS011;7346;50.846;4.388;2022-09-29T05:03:14;5.57;;;3.83;;
14518;SDS011;7346;50.846;4.388;2022-09-29T05:05:42;7.10;;;3.77;;
14518;SDS011;7346;50.846;4.388;2022-09-29T05:08:09;7.70;;;4.73;;
14518;SDS011;7346;50.846;4.388;2022-09-29T05:10:36;9.70;;;4.73;;
14518;SDS011;7346;50.846;4.388;2022-09-29T05:13:03;9.20;;;4.50;;
14518;SDS011;7346;50.846;4.388;2022-09-29T05:15:30;8.27;;;4.60;;
14518;SDS011;7346;50.846;4.388;2022-09-29T05:17:59;9.43;;;4.80;;
14518;SDS011;7346;50.846;4.388;2022-09-29T05:20:27;13.20;;;4.83;;
14518;SDS011;7346;50.846;4.388;2022-09-29T05:22:57;15.67;;;5.63;;
14518;SDS011;7346;50.846;4.388;2022-09-29T05:25:24;7.67;;;4.67;;
14518;SDS011;7346;50.846;4.388;2022-09-29T05:27:51;9.50;;;4.90;;
14518;SDS011;7346;50.846;4.388;2022-09-29T05:30:18;10.70;;;5.20;;
14518;SDS011;7346;50.846;4.388;2022-09-29T05:32:45;8.33;;;4.83;;
14518;SDS011;7346;50.846;4.388;2022-09-29T05:38:20;12.83;;;4.93;;
14518;SDS011;7346;50.846;4.388;2022-09-29T05:40:55;8.77;;;4.87;;
14518;SDS011;7346;50.846;4.388;2022-09-29T05:43:24;7.87;;;4.40;;
14518;SDS011;7346;50.846;4.388;2022-09-29T05:45:51;8.60;;;5.03;;
14518;SDS011;7346;50.846;4.388;2022-09-29T05:48:29;10.23;;;5.00;;
14518;SDS011;7346;50.846;4.388;2022-09-29T05:50:59;10.43;;;5.07;;
14518;SDS011;7346;50.846;4.388;2022-09-29T05:53:39;9.43;;;5.57;;
14518;SDS011;7346;50.846;4.388;2022-09-29T05:56:07;14.57;;;4.80;;
14518;SDS011;7346;50.846;4.388;2022-09-29T05:58:40;8.37;;;5.77;;
14518;SDS011;7346;50.846;4.388;2022-09-29T06:01:19;11.43;;;4.97;;
14518;SDS011;7346;50.846;4.388;2022-09-29T06:03:52;9.37;;;5.07;;
14518;SDS011;7346;50.846;4.388;2022-09-29T06:06:25;10.60;;;5.10;;
14518;SDS011;7346;50.846;4.388;2022-09-29T06:09:10;12.50;;;5.63;;
14518;SDS011;7346;50.846;4.388;2022-09-29T06:11:42;9.93;;;4.77;;
14518;SDS011;7346;50.846;4.388;2022-09-29T06:14:11;9.77;;;5.23;;
14518;SDS011;7346;50.846;4.388;2022-09-29T06:16:47;11.27;;;4.70;;
14518;SDS011;7346;50.846;4.388;2022-09-29T06:19:20;6.40;;;4.93;;
14518;SDS011;7346;50.846;4.388;2022-09-29T06:21:47;9.23;;;5.70;;
14518;SDS011;7346;50.846;4.388;2022-09-29T06:24:15;12.63;;;6.83;;
14518;SDS011;7346;50.846;4.388;2022-09-29T06:26:42;11.20;;;6.57;;
14518;SDS011;7346;50.846;4.388;2022-09-29T06:29:09;13.17;;;9.03;;
14518;SDS011;7346;50.846;4.388;2022-09-29T06:31:36;17.50;;;7.33;;
14518;SDS011;7346;50.846;4.388;2022-09-29T06:34:03;13.13;;;8.80;;
14518;SDS011;7346;50.846;4.388;2022-09-29T06:36:31;14.70;;;9.77;;
14518;SDS011;7346;50.846;4.388;2022-09-29T06:39:20;22.93;;;15.27;;
14518;SDS011;7346;50.846;4.388;2022-09-29T06:41:47;16.50;;;9.90;;
14518;SDS011;7346;50.846;4.388;2022-09-29T06:44:18;12.00;;;6.50;;
14518;SDS011;7346;50.846;4.388;2022-09-29T06:46:45;20.33;;;13.13;;
14518;SDS011;7346;50.846;4.388;2022-09-29T06:49:13;24.07;;;14.80;;
14518;SDS011;7346;50.846;4.388;2022-09-29T06:51:41;13.93;;;9.27;;
14518;SDS011;7346;50.846;4.388;2022-09-29T06:54:08;14.80;;;10.37;;
14518;SDS011;7346;50.846;4.388;2022-09-29T06:56:37;15.53;;;8.17;;
14518;SDS011;7346;50.846;4.388;2022-09-29T06:59:04;15.47;;;8.13;;
14518;SDS011;7346;50.846;4.388;2022-09-29T07:01:31;13.37;;;7.47;;
14518;SDS011;7346;50.846;4.388;2022-09-29T07:03:58;13.87;;;7.20;;
14518;SDS011;7346;50.846;4.388;2022-09-29T07:06:26;13.17;;;6.23;;
14518;SDS011;7346;50.846;4.388;2022-09-29T07:08:54;14.37;;;6.00;;
14518;SDS011;7346;50.846;4.388;2022-09-29T07:11:22;13.00;;;5.20;;
14518;SDS011;7346;50.846;4.388;2022-09-29T07:13:51;10.67;;;5.60;;
14518;SDS011;7346;50.846;4.388;2022-09-29T07:16:18;11.70;;;5.53;;
14518;SDS011;7346;50.846;4.388;2022-09-29T07:18:47;15.23;;;5.20;;
14518;SDS011;7346;50.846;4.388;2022-09-29T07:21:15;15.37;;;5.60;;
14518;SDS011;7346;50.846;4.388;2022-09-29T07:23:42;12.47;;;5.37;;
14518;SDS011;7346;50.846;4.388;2022-09-29T07:26:10;13.40;;;5.60;;
14518;SDS011;7346;50.846;4.388;2022-09-29T07:28:38;12.47;;;5.60;;
14518;SDS011;7346;50.846;4.388;2022-09-29T07:31:07;13.13;;;5.07;;
14518;SDS011;7346;50.846;4.388;2022-09-29T07:33:35;9.87;;;4.73;;
14518;SDS011;7346;50.846;4.388;2022-09-29T07:36:05;7.43;;;4.80;;
14518;SDS011;7346;50.846;4.388;2022-09-29T07:38:32;10.63;;;5.13;;
14518;SDS011;7346;50.846;4.388;2022-09-29T07:41:00;9.10;;;4.77;;
14518;SDS011;7346;50.846;4.388;2022-09-29T07:43:30;10.20;;;5.50;;
14518;SDS011;7346;50.846;4.388;2022-09-29T07:45:57;10.50;;;4.90;;
14518;SDS011;7346;50.846;4.388;2022-09-29T07:48:26;12.23;;;5.00;;
14518;SDS011;7346;50.846;4.388;2022-09-29T07:50:59;9.67;;;5.07;;
14518;SDS011;7346;50.846;4.388;2022-09-29T07:53:27;7.33;;;5.07;;
14518;SDS011;7346;50.846;4.388;2022-09-29T07:56:01;13.70;;;5.47;;
14518;SDS011;7346;50.846;4.388;2022-09-29T07:58:29;15.20;;;5.70;;
14518;SDS011;7346;50.846;4.388;2022-09-29T08:01:00;14.50;;;6.77;;
14518;SDS011;7346;50.846;4.388;2022-09-29T08:03:35;10.93;;;5.77;;
14518;SDS011;7346;50.846;4.388;2022-09-29T08:06:03;12.57;;;5.67;;
14518;SDS011;7346;50.846;4.388;2022-09-29T08:08:35;9.47;;;5.50;;
14518;SDS011;7346;50.846;4.388;2022-09-29T08:11:03;12.17;;;5.57;;
14518;SDS011;7346;50.846;4.388;2022-09-29T08:13:31;8.83;;;5.37;;
14518;SDS011;7346;50.846;4.388;2022-09-29T08:16:00;11.70;;;5.80;;
14518;SDS011;7346;50.846;4.388;2022-09-29T08:18:36;16.57;;;5.47;;
14518;SDS011;7346;50.846;4.388;2022-09-29T08:21:03;13.83;;;5.03;;
14518;SDS011;7346;50.846;4.388;2022-09-29T08:23:33;12.43;;;5.67;;
14518;SDS011;7346;50.846;4.388;2022-09-29T08:26:11;10.77;;;5.57;;
14518;SDS011;7346;50.846;4.388;2022-09-29T08:28:42;11.50;;;5.13;;
14518;SDS011;7346;50.846;4.388;2022-09-29T08:31:11;13.60;;;6.47;;
14518;SDS011;7346;50.846;4.388;2022-09-29T08:33:47;7.80;;;5.27;;
14518;SDS011;7346;50.846;4.388;2022-09-29T08:36:17;9.77;;;5.13;;
14518;SDS011;7346;50.846;4.388;2022-09-29T08:38:45;8.67;;;5.13;;
14518;SDS011;7346;50.846;4.388;2022-09-29T08:41:19;11.20;;;5.03;;
14518;SDS011;7346;50.846;4.388;2022-09-29T08:43:59;8.23;;;4.50;;
14518;SDS011;7346;50.846;4.388;2022-09-29T08:46:30;7.97;;;4.97;;
14518;SDS011;7346;50.846;4.388;2022-09-29T08:49:03;11.83;;;4.87;;
14518;SDS011;7346;50.846;4.388;2022-09-29T08:51:38;7.97;;;4.57;;
14518;SDS011;7346;50.846;4.388;2022-09-29T08:54:12;12.10;;;4.80;;
14518;SDS011;7346;50.846;4.388;2022-09-29T08:56:47;8.83;;;4.80;;
14518;SDS011;7346;50.846;4.388;2022-09-29T08:59:14;8.97;;;4.10;;
14518;SDS011;7346;50.846;4.388;2022-09-29T09:01:44;8.10;;;4.43;;
14518;SDS011;7346;50.846;4.388;2022-09-29T09:04:33;11.10;;;4.10;;
14518;SDS011;7346;50.846;4.388;2022-09-29T09:07:24;7.00;;;3.87;;
14518;SDS011;7346;50.846;4.388;2022-09-29T09:10:07;9.47;;;3.63;;
14518;SDS011;7346;50.846;4.388;2022-09-29T09:12:55;4.77;;;3.30;;
14518;SDS011;7346;50.846;4.388;2022-09-29T09:15:39;4.30;;;2.60;;
14518;SDS011;7346;50.846;4.388;2022-09-29T09:18:31;5.20;;;2.30;;
14518;SDS011;7346;50.846;4.388;2022-09-29T09:21:18;2.97;;;2.20;;
14518;SDS011;7346;50.846;4.388;2022-09-29T09:23:53;8.20;;;3.17;;
14518;SDS011;7346;50.846;4.388;2022-09-29T09:26:23;6.83;;;3.37;;
14518;SDS011;7346;50.846;4.388;2022-09-29T09:28:56;17.13;;;3.63;;
14518;SDS011;7346;50.846;4.388;2022-09-29T09:31:28;5.30;;;2.87;;
14518;SDS011;7346;50.846;4.388;2022-09-29T09:34:01;8.10;;;2.87;;
14518;SDS011;7346;50.846;4.388;2022-09-29T09:36:34;6.33;;;2.57;;
14518;SDS011;7346;50.846;4.388;2022-09-29T09:39:04;7.43;;;2.90;;
14518;SDS011;7346;50.846;4.388;2022-09-29T09:41:38;5.43;;;2.70;;
14518;SDS011;7346;50.846;4.388;2022-09-29T09:44:08;6.80;;;2.90;;
14518;SDS011;7346;50.846;4.388;2022-09-29T09:46:41;6.10;;;3.20;;
14518;SDS011;7346;50.846;4.388;2022-09-29T09:49:15;10.87;;;3.33;;
14518;SDS011;7346;50.846;4.388;2022-09-29T09:51:49;8.33;;;4.57;;
14518;SDS011;7346;50.846;4.388;2022-09-29T09:54:26;4.00;;;2.43;;
14518;SDS011;7346;50.846;4.388;2022-09-29T09:57:06;4.93;;;2.70;;
14518;SDS011;7346;50.846;4.388;2022-09-29T09:59:58;6.43;;;3.17;;
14518;SDS011;7346;50.846;4.388;2022-09-29T10:02:33;8.73;;;2.73;;
14518;SDS011;7346;50.846;4.388;2022-09-29T10:05:02;5.20;;;2.83;;
14518;SDS011;7346;50.846;4.388;2022-09-29T10:07:31;8.63;;;3.00;;
14518;SDS011;7346;50.846;4.388;2022-09-29T10:10:00;4.73;;;2.97;;
14518;SDS011;7346;50.846;4.388;2022-09-29T10:12:30;14.73;;;3.50;;
14518;SDS011;7346;50.846;4.388;2022-09-29T10:14:58;8.83;;;2.67;;
14518;SDS011;7346;50.846;4.388;2022-09-29T10:17:30;4.77;;;2.20;;
14518;SDS011;7346;50.846;4.388;2022-09-29T10:20:03;4.07;;;2.10;;
14518;SDS011;7346;50.846;4.388;2022-09-29T10:22:32;5.90;;;2.20;;
14518;SDS011;7346;50.846;4.388;2022-09-29T10:25:07;5.10;;;2.13;;
14518;SDS011;7346;50.846;4.388;2022-09-29T10:27:43;4.53;;;2.43;;
14518;SDS011;7346;50.846;4.388;2022-09-29T10:30:17;6.73;;;2.70;;
14518;SDS011;7346;50.846;4.388;2022-09-29T10:32:47;5.50;;;2.50;;
14518;SDS011;7346;50.846;4.388;2022-09-29T10:35:19;4.43;;;2.30;;
14518;SDS011;7346;50.846;4.388;2022-09-29T10:37:51;5.70;;;2.83;;
14518;SDS011;7346;50.846;4.388;2022-09-29T10:40:26;4.10;;;3.23;;
14518;SDS011;7346;50.846;4.388;2022-09-29T10:42:54;7.60;;;2.40;;
14518;SDS011;7346;50.846;4.388;2022-09-29T10:45:22;6.90;;;2.07;;
14518;SDS011;7346;50.846;4.388;2022-09-29T10:48:05;4.77;;;2.27;;
14518;SDS011;7346;50.846;4.388;2022-09-29T10:50:34;6.23;;;2.07;;
14518;SDS011;7346;50.846;4.388;2022-09-29T10:53:05;6.57;;;2.50;;
14518;SDS011;7346;50.846;4.388;2022-09-29T10:55:47;6.70;;;1.90;;
14518;SDS011;7346;50.846;4.388;2022-09-29T10:58:18;8.40;;;1.70;;
14518;SDS011;7346;50.846;4.388;2022-09-29T11:00:49;9.50;;;1.60;;
14518;SDS011;7346;50.846;4.388;2022-09-29T11:03:31;2.00;;;1.30;;
14518;SDS011;7346;50.846;4.388;2022-09-29T11:06:01;3.43;;;1.50;;
14518;SDS011;7346;50.846;4.388;2022-09-29T11:08:32;4.83;;;2.03;;
14518;SDS011;7346;50.846;4.388;2022-09-29T11:11:20;3.97;;;2.00;;
14518;SDS011;7346;50.846;4.388;2022-09-29T11:13:49;7.97;;;2.43;;
14518;SDS011;7346;50.846;4.388;2022-09-29T11:16:18;6.47;;;2.20;;
14518;SDS011;7346;50.846;4.388;2022-09-29T11:18:49;10.00;;;2.73;;
14518;SDS011;7346;50.846;4.388;2022-09-29T11:21:33;3.63;;;2.10;;
14518;SDS011;7346;50.846;4.388;2022-09-29T11:24:16;3.77;;;1.50;;
14518;SDS011;7346;50.846;4.388;2022-09-29T11:26:55;4.60;;;1.77;;
14518;SDS011;7346;50.846;4.388;2022-09-29T11:29:31;5.70;;;2.27;;
14518;SDS011;7346;50.846;4.388;2022-09-29T11:32:19;4.33;;;1.73;;
14518;SDS011;7346;50.846;4.388;2022-09-29T11:34:59;3.10;;;1.90;;
14518;SDS011;7346;50.846;4.388;2022-09-29T11:38:02;4.13;;;1.77;;
14518;SDS011;7346;50.846;4.388;2022-09-29T11:40:53;7.50;;;1.90;;
14518;SDS011;7346;50.846;4.388;2022-09-29T11:43:31;5.07;;;1.60;;
14518;SDS011;7346;50.846;4.388;2022-09-29T11:46:11;3.13;;;1.30;;
14518;SDS011;7346;50.846;4.388;2022-09-29T11:51:57;2.78;;;1.52;;
14518;SDS011;7346;50.846;4.388;2022-09-29T11:54:39;3.70;;;1.50;;
14518;SDS011;7346;50.846;4.388;2022-09-29T11:57:31;6.88;;;1.73;;
14518;SDS011;7346;50.846;4.388;2022-09-29T12:00:09;2.58;;;1.25;;
14518;SDS011;7346;50.846;4.388;2022-09-29T12:02:48;2.83;;;1.50;;
14518;SDS011;7346;50.846;4.388;2022-09-29T12:05:36;2.83;;;1.40;;
14518;SDS011;7346;50.846;4.388;2022-09-29T12:08:29;6.38;;;1.77;;
14518;SDS011;7346;50.846;4.388;2022-09-29T12:11:09;3.95;;;1.65;;
14518;SDS011;7346;50.846;4.388;2022-09-29T12:13:46;8.30;;;1.53;;
14518;SDS011;7346;50.846;4.388;2022-09-29T12:16:19;3.38;;;1.42;;
14518;SDS011;7346;50.846;4.388;2022-09-29T12:18:48;2.78;;;1.30;;
14518;SDS011;7346;50.846;4.388;2022-09-29T12:21:22;6.00;;;1.52;;
14518;SDS011;7346;50.846;4.388;2022-09-29T12:23:56;3.10;;;1.50;;
14518;SDS011;7346;50.846;4.388;2022-09-29T12:26:25;4.28;;;1.33;;
14518;SDS011;7346;50.846;4.388;2022-09-29T12:28:55;4.07;;;1.50;;
14518;SDS011;7346;50.846;4.388;2022-09-29T12:31:26;8.85;;;2.22;;
14518;SDS011;7346;50.846;4.388;2022-09-29T12:33:59;3.25;;;1.38;;
14518;SDS011;7346;50.846;4.388;2022-09-29T12:36:37;2.65;;;1.50;;
14518;SDS011;7346;50.846;4.388;2022-09-29T12:42:02;8.48;;;5.60;;
14518;SDS011;7346;50.846;4.388;2022-09-29T12:44:39;3.92;;;1.80;;
14518;SDS011;7346;50.846;4.388;2022-09-29T12:47:11;6.63;;;1.40;;
14518;SDS011;7346;50.846;4.388;2022-09-29T12:49:51;2.07;;;1.30;;
14518;SDS011;7346;50.846;4.388;2022-09-29T12:52:30;4.57;;;1.70;;
14518;SDS011;7346;50.846;4.388;2022-09-29T12:55:06;1.73;;;1.30;;
14518;SDS011;7346;50.846;4.388;2022-09-29T12:57:41;3.33;;;1.70;;
14518;SDS011;7346;50.846;4.388;2022-09-29T13:00:13;4.23;;;1.60;;
14518;SDS011;7346;50.846;4.388;2022-09-29T13:02:47;2.55;;;1.70;;
14518;SDS011;7346;50.846;4.388;2022-09-29T13:08:37;3.63;;;1.80;;
14518;SDS011;7346;50.846;4.388;2022-09-29T13:11:41;3.15;;;1.33;;
14518;SDS011;7346;50.846;4.388;2022-09-29T13:17:32;2.45;;;1.50;;
14518;SDS011;7346;50.846;4.388;2022-09-29T13:20:32;4.77;;;1.50;;
14518;SDS011;7346;50.846;4.388;2022-09-29T13:26:10;2.83;;;1.17;;
14518;SDS011;7346;50.846;4.388;2022-09-29T13:28:57;3.03;;;1.10;;
14518;SDS011;7346;50.846;4.388;2022-09-29T13:31:28;2.75;;;1.20;;
14518;SDS011;7346;50.846;4.388;2022-09-29T13:33:59;3.22;;;1.17;;
14518;SDS011;7346;50.846;4.388;2022-09-29T13:36:28;2.10;;;1.13;;
14518;SDS011;7346;50.846;4.388;2022-09-29T13:39:17;2.80;;;1.10;;
14518;SDS011;7346;50.846;4.388;2022-09-29T13:41:48;2.33;;;1.17;;
14518;SDS011;7346;50.846;4.388;2022-09-29T13:44:23;2.42;;;0.98;;
14518;SDS011;7346;50.846;4.388;2022-09-29T13:46:51;2.67;;;1.10;;
14518;SDS011;7346;50.846;4.388;2022-09-29T13:49:25;2.67;;;1.17;;
14518;SDS011;7346;50.846;4.388;2022-09-29T13:51:57;4.10;;;1.20;;
14518;SDS011;7346;50.846;4.388;2022-09-29T13:54:29;2.15;;;1.00;;
14518;SDS011;7346;50.846;4.388;2022-09-29T13:57:17;4.10;;;1.40;;
14518;SDS011;7346;50.846;4.388;2022-09-29T14:02:45;2.00;;;1.00;;
14518;SDS011;7346;50.846;4.388;2022-09-29T14:05:36;5.35;;;1.30;;
14518;SDS011;7346;50.846;4.388;2022-09-29T14:08:12;3.17;;;1.10;;
14518;SDS011;7346;50.846;4.388;2022-09-29T14:10:45;1.50;;;1.10;;
14518;SDS011;7346;50.846;4.388;2022-09-29T14:13:19;1.92;;;0.88;;
14518;SDS011;7346;50.846;4.388;2022-09-29T14:15:51;2.00;;;1.10;;
14518;SDS011;7346;50.846;4.388;2022-09-29T14:18:30;4.85;;;1.20;;
14518;SDS011;7346;50.846;4.388;2022-09-29T14:21:02;2.95;;;1.20;;
14518;SDS011;7346;50.846;4.388;2022-09-29T14:23:47;3.58;;;1.35;;
14518;SDS011;7346;50.846;4.388;2022-09-29T14:29:15;6.35;;;1.38;;
14518;SDS011;7346;50.846;4.388;2022-09-29T14:31:47;4.65;;;1.67;;
14518;SDS011;7346;50.846;4.388;2022-09-29T14:34:17;3.17;;;1.30;;
14518;SDS011;7346;50.846;4.388;2022-09-29T14:36:48;3.17;;;1.27;;
14518;SDS011;7346;50.846;4.388;2022-09-29T14:39:17;4.00;;;1.20;;
14518;SDS011;7346;50.846;4.388;2022-09-29T14:41:46;2.78;;;1.20;;
14518;SDS011;7346;50.846;4.388;2022-09-29T14:44:16;6.93;;;1.23;;
14518;SDS011;7346;50.846;4.388;2022-09-29T14:50:13;3.42;;;1.10;;
14518;SDS011;7346;50.846;4.388;2022-09-29T14:56:00;4.03;;;1.23;;
14518;SDS011;7346;50.846;4.388;2022-09-29T14:58:44;2.72;;;1.02;;
14518;SDS011;7346;50.846;4.388;2022-09-29T15:01:24;3.58;;;1.08;;
14518;SDS011;7346;50.846;4.388;2022-09-29T15:03:53;2.50;;;1.27;;
14518;SDS011;7346;50.846;4.388;2022-09-29T15:06:23;4.35;;;1.10;;
14518;SDS011;7346;50.846;4.388;2022-09-29T15:08:54;2.03;;;1.00;;
14518;SDS011;7346;50.846;4.388;2022-09-29T15:11:25;5.10;;;1.00;;
14518;SDS011;7346;50.846;4.388;2022-09-29T15:13:53;4.03;;;1.20;;
14518;SDS011;7346;50.846;4.388;2022-09-29T15:16:23;10.90;;;3.10;;
14518;SDS011;7346;50.846;4.388;2022-09-29T15:19:00;4.85;;;1.50;;
14518;SDS011;7346;50.846;4.388;2022-09-29T15:21:38;4.90;;;1.50;;
14518;SDS011;7346;50.846;4.388;2022-09-29T15:24:20;4.13;;;1.27;;
14518;SDS011;7346;50.846;4.388;2022-09-29T15:26:59;5.15;;;1.83;;
14518;SDS011;7346;50.846;4.388;2022-09-29T15:29:27;2.78;;;1.50;;
14518;SDS011;7346;50.846;4.388;2022-09-29T15:31:55;4.88;;;2.17;;
14518;SDS011;7346;50.846;4.388;2022-09-29T15:34:23;5.50;;;2.10;;
14518;SDS011;7346;50.846;4.388;2022-09-29T15:36:51;4.95;;;1.98;;
14518;SDS011;7346;50.846;4.388;2022-09-29T15:42:14;3.63;;;1.98;;
14518;SDS011;7346;50.846;4.388;2022-09-29T15:44:46;2.72;;;1.77;;
14518;SDS011;7346;50.846;4.388;2022-09-29T15:47:20;3.75;;;2.38;;
14518;SDS011;7346;50.846;4.388;2022-09-29T15:49:48;6.13;;;4.95;;
14518;SDS011;7346;50.846;4.388;2022-09-29T15:52:16;4.47;;;1.90;;
14518;SDS011;7346;50.846;4.388;2022-09-29T15:54:51;4.07;;;2.00;;
14518;SDS011;7346;50.846;4.388;2022-09-29T15:57:27;6.00;;;2.03;;
14518;SDS011;7346;50.846;4.388;2022-09-29T16:03:28;3.17;;;1.60;;
14518;SDS011;7346;50.846;4.388;2022-09-29T16:06:04;8.32;;;3.05;;
14518;SDS011;7346;50.846;4.388;2022-09-29T16:08:49;5.57;;;2.50;;
14518;SDS011;7346;50.846;4.388;2022-09-29T16:11:22;6.47;;;2.20;;